createdAt,value
2022-08-25T00:01:56.973Z,3.95
2022-08-25T00:04:25.454Z,5.20
2022-08-25T00:06:53.545Z,4.88
2022-08-25T00:09:23.106Z,3.33
2022-08-25T00:11:50.606Z,3.40
2022-08-25T00:14:24.213Z,6.28
2022-08-25T00:16:51.516Z,4.40
2022-08-25T00:19:24.081Z,3.65
2022-08-25T00:21:51.658Z,3.30
2022-08-25T00:24:21.257Z,4.75
2022-08-25T00:26:50.734Z,4.75
2022-08-25T00:29:17.996Z,4.30
2022-08-25T00:31:45.604Z,3.40
2022-08-25T00:34:23.935Z,3.13
2022-08-25T00:36:51.907Z,3.75
2022-08-25T00:39:21.130Z,3.35
2022-08-25T00:41:49.947Z,2.92
2022-08-25T00:44:20.482Z,3.22
2022-08-25T00:46:50.571Z,6.57
2022-08-25T00:49:24.785Z,3.10
2022-08-25T00:52:04.082Z,4.15
2022-08-25T00:54:37.036Z,2.63
2022-08-25T00:57:06.776Z,3.60
2022-08-25T00:59:34.506Z,6.25
2022-08-25T01:02:02.487Z,3.00
2022-08-25T01:04:29.676Z,3.67
2022-08-25T01:06:58.182Z,5.10
2022-08-25T01:09:25.007Z,2.90
2022-08-25T01:11:52.868Z,2.60
2022-08-25T01:14:21.569Z,3.72
2022-08-25T01:16:51.056Z,5.80
2022-08-25T01:19:21.202Z,1.95
2022-08-25T01:21:53.019Z,2.95
2022-08-25T01:24:29.156Z,3.00
2022-08-25T01:26:55.798Z,3.35
2022-08-25T01:29:22.926Z,4.72
2022-08-25T01:31:57.673Z,3.28
2022-08-25T01:34:26.982Z,3.03
2022-08-25T01:36:54.975Z,3.50
2022-08-25T01:39:22.163Z,2.78
2022-08-25T01:41:48.692Z,3.65
2022-08-25T01:44:18.486Z,4.32
2022-08-25T01:46:45.205Z,4.72
2022-08-25T01:49:12.426Z,5.32
2022-08-25T01:51:44.544Z,4.95
2022-08-25T01:54:11.193Z,7.68
2022-08-25T01:56:39.034Z,4.60
2022-08-25T01:59:05.746Z,7.30
2022-08-25T02:01:32.519Z,4.65
2022-08-25T02:03:59.769Z,4.72
2022-08-25T02:06:30.014Z,2.67
2022-08-25T02:09:05.116Z,2.63
2022-08-25T02:11:32.874Z,4.22
2022-08-25T02:13:59.874Z,4.25
2022-08-25T02:16:31.078Z,5.80
2022-08-25T02:18:59.293Z,4.15
2022-08-25T02:21:26.791Z,4.80
2022-08-25T02:23:53.852Z,5.32
2022-08-25T02:26:20.793Z,3.95
2022-08-25T02:28:49.694Z,7.00
2022-08-25T02:31:18.088Z,4.03
2022-08-25T02:33:45.420Z,3.67
2022-08-25T02:36:15.357Z,5.75
2022-08-25T02:38:42.568Z,6.18
2022-08-25T02:41:18.302Z,6.35
2022-08-25T02:43:46.744Z,5.00
2022-08-25T02:46:13.451Z,3.10
2022-08-25T02:48:41.493Z,4.97
2022-08-25T02:51:10.208Z,6.90
2022-08-25T02:53:39.905Z,6.47
2022-08-25T02:56:11.867Z,6.22
2022-08-25T02:58:40.617Z,6.97
2022-08-25T03:01:11.862Z,5.90
2022-08-25T03:03:44.252Z,6.93
2022-08-25T03:06:13.137Z,9.63
2022-08-25T03:08:42.137Z,7.15
2022-08-25T03:11:09.409Z,9.02
2022-08-25T03:13:37.086Z,6.95
2022-08-25T03:16:11.175Z,7.00
2022-08-25T03:18:40.584Z,9.65
2022-08-25T03:21:08.244Z,7.72
2022-08-25T03:23:35.539Z,9.43
2022-08-25T03:26:20.787Z,9.70
2022-08-25T03:28:47.486Z,9.40
2022-08-25T03:31:14.387Z,6.47
2022-08-25T03:33:41.212Z,10.43
2022-08-25T03:36:09.108Z,7.88
2022-08-25T03:38:38.266Z,8.02
2022-08-25T03:41:20.424Z,7.43
2022-08-25T03:43:47.708Z,10.57
2022-08-25T03:46:29.357Z,8.30
2022-08-25T03:48:57.085Z,9.00
2022-08-25T03:51:31.261Z,8.05
2022-08-25T03:53:59.004Z,7.90
2022-08-25T03:56:27.345Z,10.43
2022-08-25T03:58:54.837Z,8.48
2022-08-25T04:01:22.723Z,9.18
2022-08-25T04:03:50.193Z,7.63
2022-08-25T04:06:18.629Z,8.48
2022-08-25T04:08:45.550Z,10.20
2022-08-25T04:11:15.711Z,8.73
2022-08-25T04:13:42.421Z,10.45
2022-08-25T04:16:16.386Z,7.40
2022-08-25T04:18:44.083Z,9.43
2022-08-25T04:21:11.986Z,11.63
2022-08-25T04:23:40.706Z,13.60
2022-08-25T04:26:17.363Z,10.02
2022-08-25T04:28:44.018Z,8.15
2022-08-25T04:31:12.310Z,12.63
2022-08-25T04:33:39.279Z,9.80
2022-08-25T04:36:12.259Z,11.13
2022-08-25T04:38:41.253Z,10.25
2022-08-25T04:41:10.211Z,11.98
2022-08-25T04:43:38.721Z,13.20
2022-08-25T04:46:12.478Z,9.45
2022-08-25T04:48:40.263Z,11.10
2022-08-25T04:51:10.136Z,9.95
2022-08-25T04:53:37.985Z,11.93
2022-08-25T04:56:14.608Z,12.82
2022-08-25T04:58:41.853Z,12.07
2022-08-25T05:01:11.789Z,11.32
2022-08-25T05:03:38.833Z,9.77
2022-08-25T05:06:06.332Z,9.75
2022-08-25T05:08:33.856Z,9.98
2022-08-25T05:11:14.334Z,10.30
2022-08-25T05:13:41.591Z,12.02
2022-08-25T05:16:09.944Z,12.68
2022-08-25T05:18:38.678Z,11.77
2022-08-25T05:21:12.172Z,10.43
2022-08-25T05:23:40.294Z,11.57
2022-08-25T05:26:17.717Z,11.63
2022-08-25T05:28:48.766Z,11.25
2022-08-25T05:31:15.743Z,19.00
2022-08-25T05:33:42.682Z,12.00
2022-08-25T05:36:11.160Z,14.32
2022-08-25T05:38:39.739Z,15.00
2022-08-25T05:41:16.514Z,14.63
2022-08-25T05:43:44.881Z,13.63
2022-08-25T05:46:18.774Z,11.95
2022-08-25T05:48:46.169Z,15.43
2022-08-25T05:51:15.329Z,17.33
2022-08-25T05:53:44.831Z,12.35
2022-08-25T05:56:14.022Z,10.23
2022-08-25T05:58:42.020Z,12.90
2022-08-25T06:01:28.980Z,14.43
2022-08-25T06:03:55.706Z,16.75
2022-08-25T06:06:24.422Z,15.40
2022-08-25T06:08:51.839Z,14.68
2022-08-25T06:11:19.341Z,13.70
2022-08-25T06:13:46.611Z,13.93
2022-08-25T06:16:13.832Z,13.13
2022-08-25T06:18:40.851Z,13.80
2022-08-25T06:21:10.247Z,13.10
2022-08-25T06:23:38.521Z,12.85
2022-08-25T06:26:05.495Z,16.02
2022-08-25T06:28:32.163Z,12.40
2022-08-25T06:31:00.872Z,12.68
2022-08-25T06:33:27.990Z,13.70
2022-08-25T06:35:56.447Z,12.23
2022-08-25T06:38:24.483Z,13.60
2022-08-25T06:40:57.817Z,13.10
2022-08-25T06:43:24.644Z,12.77
2022-08-25T06:45:53.844Z,12.27
2022-08-25T06:48:20.515Z,13.60
2022-08-25T06:50:47.262Z,13.73
2022-08-25T06:53:15.149Z,12.30
2022-08-25T06:55:42.695Z,10.75
2022-08-25T06:58:10.262Z,8.80
2022-08-25T07:00:38.289Z,10.05
2022-08-25T07:03:05.266Z,10.95
2022-08-25T07:05:42.783Z,7.40
2022-08-25T07:08:11.987Z,8.70
2022-08-25T07:10:39.033Z,10.30
2022-08-25T07:13:06.002Z,10.02
2022-08-25T07:15:32.728Z,9.25
2022-08-25T07:17:59.785Z,9.48
2022-08-25T07:22:53.038Z,10.10
2022-08-25T07:25:19.746Z,10.02
2022-08-25T07:27:46.698Z,10.73
2022-08-25T07:30:14.110Z,9.75
2022-08-25T07:32:42.259Z,8.82
2022-08-25T07:35:15.989Z,6.93
2022-08-25T07:37:58.118Z,8.30
2022-08-25T07:40:34.311Z,10.55
2022-08-25T07:43:04.111Z,8.68
2022-08-25T07:45:34.299Z,7.32
2022-08-25T07:48:09.853Z,7.60
2022-08-25T07:50:39.190Z,8.73
2022-08-25T07:53:06.080Z,8.05
2022-08-25T07:55:36.482Z,7.97
2022-08-25T07:58:06.014Z,8.68
2022-08-25T08:00:37.074Z,7.00
2022-08-25T08:03:05.602Z,10.25
2022-08-25T08:08:03.939Z,7.63
2022-08-25T08:10:54.245Z,7.75
2022-08-25T08:13:18.803Z,6.32
2022-08-25T08:15:46.414Z,9.10
2022-08-25T08:18:13.558Z,7.38
2022-08-25T08:20:44.393Z,5.97
2022-08-25T08:23:12.312Z,7.72
2022-08-25T08:25:38.991Z,9.15
2022-08-25T08:28:05.819Z,6.72
2022-08-25T08:30:36.526Z,6.70
2022-08-25T08:33:10.197Z,4.32
2022-08-25T08:35:38.890Z,5.80
2022-08-25T08:38:13.558Z,4.68
2022-08-25T08:41:22.954Z,3.53
2022-08-25T08:43:55.744Z,4.13
2022-08-25T08:46:23.159Z,4.85
2022-08-25T08:49:06.216Z,2.88
2022-08-25T08:51:42.285Z,3.67
2022-08-25T08:54:23.045Z,8.57
2022-08-25T08:56:56.174Z,2.78
2022-08-25T08:59:30.014Z,2.78
2022-08-25T09:02:03.051Z,4.38
2022-08-25T09:04:39.702Z,3.40
2022-08-25T09:07:13.051Z,4.25
2022-08-25T09:09:42.984Z,3.25
2022-08-25T09:12:23.679Z,3.50
2022-08-25T09:15:18.354Z,2.60
2022-08-25T09:18:41.077Z,3.80
2022-08-25T09:21:43.417Z,2.97
2022-08-25T09:24:20.425Z,6.30
2022-08-25T09:27:10.796Z,2.58
2022-08-25T09:30:05.331Z,3.10
2022-08-25T09:32:48.667Z,6.07
2022-08-25T09:35:28.833Z,7.15
2022-08-25T09:38:02.990Z,4.50
2022-08-25T09:40:32.158Z,3.72
2022-08-25T09:43:02.039Z,3.90
2022-08-25T09:45:35.051Z,3.50
2022-08-25T09:48:02.768Z,3.22
2022-08-25T09:50:34.762Z,5.47
2022-08-25T09:53:17.337Z,3.42
2022-08-25T09:55:52.293Z,2.47
2022-08-25T09:58:29.549Z,4.40
2022-08-25T10:01:14.628Z,2.42
2022-08-25T10:04:00.715Z,3.88
2022-08-25T10:06:34.184Z,2.72
2022-08-25T10:09:08.318Z,2.97
2022-08-25T10:11:37.973Z,4.80
2022-08-25T10:14:08.443Z,2.72
2022-08-25T10:16:36.432Z,2.22
2022-08-25T10:19:23.445Z,4.47
2022-08-25T10:22:10.819Z,2.70
2022-08-25T10:24:41.085Z,3.88
2022-08-25T10:27:31.163Z,2.53
2022-08-25T10:30:19.241Z,3.00
2022-08-25T10:33:20.351Z,2.50
2022-08-25T10:36:23.542Z,2.45
2022-08-25T10:39:01.966Z,3.90
2022-08-25T10:42:10.174Z,1.70
2022-08-25T10:45:23.720Z,2.22
2022-08-25T10:48:04.616Z,3.50
2022-08-25T10:50:41.035Z,3.47
2022-08-25T10:53:36.744Z,3.08
2022-08-25T10:56:25.136Z,3.83
2022-08-25T10:59:01.520Z,4.38
2022-08-25T11:01:38.890Z,2.85
2022-08-25T11:04:15.951Z,2.35
2022-08-25T11:06:52.733Z,2.50
2022-08-25T11:09:39.064Z,3.22
2022-08-25T11:12:18.256Z,2.05
2022-08-25T11:14:48.218Z,2.90
2022-08-25T11:17:20.900Z,2.40
2022-08-25T11:19:52.150Z,2.80
2022-08-25T11:22:45.987Z,2.15
2022-08-25T11:25:36.748Z,3.25
2022-08-25T11:28:12.884Z,1.90
2022-08-25T11:30:40.447Z,3.55
2022-08-25T11:33:12.104Z,5.28
2022-08-25T11:35:43.654Z,2.63
2022-08-25T11:38:29.400Z,2.13
2022-08-25T11:41:22.864Z,2.42
2022-08-25T11:43:52.942Z,6.00
2022-08-25T11:49:30.604Z,6.15
2022-08-25T11:52:02.913Z,3.75
2022-08-25T11:54:43.744Z,2.58
2022-08-25T11:57:22.230Z,4.57
2022-08-25T11:59:59.575Z,2.72
2022-08-25T12:02:47.666Z,3.47
2022-08-25T12:05:17.498Z,3.70
2022-08-25T12:07:47.392Z,2.33
2022-08-25T12:10:22.594Z,2.80
2022-08-25T12:13:04.799Z,1.48
2022-08-25T12:15:56.421Z,1.83
2022-08-25T12:18:26.922Z,2.33
2022-08-25T12:20:53.952Z,3.40
2022-08-25T12:23:38.244Z,3.35
2022-08-25T12:26:29.487Z,3.22
2022-08-25T12:29:16.901Z,3.20
2022-08-25T12:32:04.669Z,2.38
2022-08-25T12:34:40.171Z,3.05
2022-08-25T12:37:21.371Z,6.28
2022-08-25T12:39:51.485Z,1.63
2022-08-25T12:42:31.719Z,1.50
2022-08-25T12:45:14.180Z,4.45
2022-08-25T12:47:44.971Z,1.63
2022-08-25T12:50:39.092Z,2.00
2022-08-25T12:53:18.126Z,1.65
2022-08-25T12:55:50.379Z,2.47
2022-08-25T12:58:18.056Z,2.53
2022-08-25T13:00:57.988Z,2.03
2022-08-25T13:03:47.404Z,4.63
2022-08-25T13:06:33.040Z,5.60
2022-08-25T13:09:25.185Z,2.05
2022-08-25T13:12:31.701Z,3.03
2022-08-25T13:15:01.472Z,2.40
2022-08-25T13:17:35.036Z,2.55
2022-08-25T13:20:17.330Z,3.15
2022-08-25T13:22:47.483Z,1.42
2022-08-25T13:25:23.033Z,2.00
2022-08-25T13:28:05.800Z,2.60
2022-08-25T13:30:37.258Z,1.92
2022-08-25T13:33:24.135Z,4.35
2022-08-25T13:36:15.393Z,1.75
2022-08-25T13:38:46.573Z,4.97
2022-08-25T13:41:28.954Z,1.88
2022-08-25T13:44:00.767Z,1.95
2022-08-25T13:46:28.780Z,1.98
2022-08-25T13:49:07.060Z,2.15
2022-08-25T13:51:36.758Z,2.60
2022-08-25T13:54:07.245Z,5.45
2022-08-25T13:56:41.897Z,5.30
2022-08-25T13:59:40.096Z,2.88
2022-08-25T14:02:09.100Z,5.88
2022-08-25T14:04:51.056Z,1.35
2022-08-25T14:07:22.719Z,2.35
2022-08-25T14:10:00.760Z,1.45
2022-08-25T14:12:46.648Z,2.47
2022-08-25T14:15:32.000Z,1.70
2022-08-25T14:18:06.307Z,2.13
2022-08-25T14:20:35.218Z,2.00
2022-08-25T14:23:09.896Z,6.32
2022-08-25T14:25:40.746Z,4.45
2022-08-25T14:28:15.416Z,2.25
2022-08-25T14:30:52.957Z,1.67
2022-08-25T14:33:24.595Z,1.48
2022-08-25T14:35:54.428Z,7.57
2022-08-25T14:38:22.718Z,3.80
2022-08-25T14:40:51.360Z,3.10
2022-08-25T14:43:20.918Z,2.33
2022-08-25T14:45:51.871Z,1.55
2022-08-25T14:48:29.668Z,3.40
2022-08-25T14:50:59.639Z,1.25
2022-08-25T14:53:27.549Z,1.40
2022-08-25T14:55:59.056Z,2.00
2022-08-25T14:58:27.097Z,2.38
2022-08-25T15:00:54.949Z,3.38
2022-08-25T15:03:30.040Z,2.13
2022-08-25T15:06:01.035Z,1.92
2022-08-25T15:08:47.561Z,1.92
2022-08-25T15:11:15.065Z,1.58
2022-08-25T15:13:43.840Z,1.88
2022-08-25T15:16:23.295Z,2.88
2022-08-25T15:18:50.664Z,1.40
2022-08-25T15:21:19.135Z,1.25
2022-08-25T15:23:46.228Z,4.60
2022-08-25T15:26:14.114Z,2.70
2022-08-25T15:28:45.452Z,1.50
2022-08-25T15:31:12.731Z,1.52
2022-08-25T15:33:39.899Z,4.03
2022-08-25T15:36:15.299Z,4.72
2022-08-25T15:38:46.707Z,4.22
2022-08-25T15:41:13.771Z,2.22
2022-08-25T15:43:43.294Z,2.25
2022-08-25T15:46:14.569Z,4.32
2022-08-25T15:48:42.405Z,4.38
2022-08-25T15:51:10.096Z,3.45
2022-08-25T15:53:36.847Z,2.08
2022-08-25T15:56:06.901Z,3.50
2022-08-25T15:58:35.377Z,3.10
2022-08-25T16:01:03.253Z,2.38
2022-08-25T16:03:31.747Z,1.80
2022-08-25T16:05:58.565Z,2.90
2022-08-25T16:08:25.426Z,2.17
2022-08-25T16:10:52.697Z,3.92
2022-08-25T16:13:19.408Z,1.83
2022-08-25T16:15:53.075Z,3.08
2022-08-25T16:18:23.391Z,2.90
2022-08-25T16:20:51.825Z,2.17
2022-08-25T16:23:21.339Z,1.85
2022-08-25T16:25:48.765Z,2.05
2022-08-25T16:28:17.522Z,1.73
2022-08-25T16:30:52.655Z,2.83
2022-08-25T16:33:20.343Z,4.25
2022-08-25T16:35:49.331Z,1.88
2022-08-25T16:38:16.160Z,1.92
2022-08-25T16:40:43.475Z,3.45
2022-08-25T16:43:11.708Z,6.05
2022-08-25T16:45:38.753Z,3.08
2022-08-25T16:48:07.595Z,1.98
2022-08-25T16:50:35.607Z,4.23
2022-08-25T16:53:23.980Z,4.68
2022-08-25T16:56:00.964Z,5.38
2022-08-25T16:58:28.008Z,12.73
2022-08-25T17:01:07.124Z,10.48
2022-08-25T17:03:37.064Z,9.20
2022-08-25T17:06:05.909Z,10.05
2022-08-25T17:08:36.186Z,7.93
2022-08-25T17:11:15.003Z,8.90
2022-08-25T17:13:49.647Z,7.85
2022-08-25T17:16:17.873Z,10.15
2022-08-25T17:18:47.770Z,8.85
2022-08-25T17:21:24.633Z,8.55
2022-08-25T17:23:53.192Z,7.43
2022-08-25T17:26:20.344Z,12.65
2022-08-25T17:28:54.880Z,9.10
2022-08-25T17:31:23.485Z,10.50
2022-08-25T17:33:52.347Z,6.22
2022-08-25T17:36:19.416Z,7.00
2022-08-25T17:38:46.675Z,10.98
2022-08-25T17:41:15.269Z,10.23
2022-08-25T17:43:43.640Z,4.55
2022-08-25T17:46:12.504Z,7.07
2022-08-25T17:48:43.821Z,11.48
2022-08-25T17:51:11.444Z,8.60
2022-08-25T17:53:38.988Z,12.20
2022-08-25T17:56:14.018Z,9.73
2022-08-25T17:58:42.550Z,6.70
2022-08-25T18:01:19.446Z,7.85
2022-08-25T18:03:49.478Z,9.18
2022-08-25T18:06:16.664Z,7.30
2022-08-25T18:08:44.343Z,9.77
2022-08-25T18:11:12.032Z,9.25
2022-08-25T18:13:39.586Z,13.70
2022-08-25T18:16:08.846Z,6.93
2022-08-25T18:18:37.152Z,9.63
2022-08-25T18:21:04.354Z,7.35
2022-08-25T18:23:33.905Z,8.80
2022-08-25T18:26:01.327Z,7.00
2022-08-25T18:28:29.719Z,8.65
2022-08-25T18:30:57.045Z,8.45
2022-08-25T18:33:24.092Z,7.85
2022-08-25T18:35:50.781Z,9.02
2022-08-25T18:38:36.424Z,8.23
2022-08-25T18:41:06.671Z,11.45
2022-08-25T18:43:35.178Z,10.73
2022-08-25T18:46:06.936Z,9.02
2022-08-25T18:48:35.277Z,9.35
2022-08-25T18:51:02.298Z,9.23
2022-08-25T18:53:49.556Z,9.75
2022-08-25T18:56:18.183Z,14.65
2022-08-25T18:58:46.656Z,6.82
2022-08-25T19:01:15.880Z,6.22
2022-08-25T19:03:44.320Z,10.93
2022-08-25T19:06:11.504Z,8.77
2022-08-25T19:08:41.876Z,5.53
2022-08-25T19:11:09.800Z,10.10
2022-08-25T19:13:37.429Z,12.30
2022-08-25T19:16:30.279Z,10.88
2022-08-25T19:18:57.471Z,5.68
2022-08-25T19:21:25.206Z,8.52
2022-08-25T19:23:53.860Z,9.23
2022-08-25T19:26:21.386Z,5.90
2022-08-25T19:28:49.457Z,13.65
2022-08-25T19:31:18.683Z,10.30
2022-08-25T19:33:47.884Z,9.73
2022-08-25T19:36:17.566Z,8.30
2022-08-25T19:38:44.498Z,11.23
2022-08-25T19:41:14.543Z,11.30
2022-08-25T19:43:55.226Z,8.05
2022-08-25T19:46:33.409Z,9.57
2022-08-25T19:49:12.768Z,9.18
2022-08-25T19:51:44.146Z,8.30
2022-08-25T19:54:13.776Z,9.25
2022-08-25T19:56:53.703Z,10.45
2022-08-25T19:59:40.649Z,7.05
2022-08-25T20:02:12.652Z,10.05
2022-08-25T20:04:49.912Z,11.38
2022-08-25T20:07:19.302Z,8.07
2022-08-25T20:09:46.363Z,8.15
2022-08-25T20:14:40.334Z,9.88
2022-08-25T20:17:14.586Z,8.05
2022-08-25T20:19:57.216Z,9.68
2022-08-25T20:22:26.949Z,8.85
2022-08-25T20:24:59.103Z,9.70
2022-08-25T20:27:33.324Z,7.88
2022-08-25T20:30:02.556Z,8.65
2022-08-25T20:32:31.418Z,12.50
2022-08-25T20:34:58.226Z,8.05
2022-08-25T20:37:25.900Z,16.17
2022-08-25T20:39:53.018Z,11.18
2022-08-25T20:42:20.073Z,12.55
2022-08-25T20:44:47.179Z,14.07
2022-08-25T20:47:14.957Z,8.13
2022-08-25T20:49:44.860Z,11.10
2022-08-25T20:52:12.007Z,10.68
2022-08-25T20:54:40.351Z,14.05
2022-08-25T20:57:08.142Z,8.27
2022-08-25T20:59:35.299Z,10.07
2022-08-25T21:02:02.290Z,9.63
2022-08-25T21:04:31.169Z,12.63
2022-08-25T21:07:00.322Z,12.52
2022-08-25T21:09:28.119Z,10.88
2022-08-25T21:11:56.681Z,7.15
2022-08-25T21:14:24.903Z,10.90
2022-08-25T21:16:53.850Z,9.43
2022-08-25T21:19:26.893Z,8.50
2022-08-25T21:21:59.764Z,10.15
2022-08-25T21:24:28.430Z,10.25
2022-08-25T21:26:59.712Z,6.30
2022-08-25T21:29:28.470Z,16.35
2022-08-25T21:31:58.565Z,10.93
2022-08-25T21:34:26.044Z,9.05
2022-08-25T21:36:57.982Z,10.48
2022-08-25T21:39:28.068Z,10.80
2022-08-25T21:41:56.804Z,14.15
2022-08-25T21:44:23.634Z,10.60
2022-08-25T21:46:54.254Z,11.63
2022-08-25T21:49:22.594Z,14.52
2022-08-25T21:51:59.289Z,12.52
2022-08-25T21:54:26.792Z,7.47
2022-08-25T21:56:59.620Z,8.75
2022-08-25T21:59:32.445Z,10.68
2022-08-25T22:02:03.234Z,11.15
2022-08-25T22:04:31.078Z,10.10
2022-08-25T22:06:58.196Z,8.20
2022-08-25T22:09:28.151Z,11.48
2022-08-25T22:11:56.028Z,13.73
2022-08-25T22:14:24.273Z,10.32
2022-08-25T22:16:54.154Z,9.13
2022-08-25T22:19:21.540Z,12.18
2022-08-25T22:21:50.981Z,11.30
2022-08-25T22:24:18.143Z,11.38
2022-08-25T22:26:47.415Z,10.60
2022-08-25T22:29:14.706Z,9.85
2022-08-25T22:31:52.867Z,15.98
2022-08-25T22:34:19.911Z,8.45
2022-08-25T22:36:59.491Z,9.00
2022-08-25T22:39:27.511Z,10.65
2022-08-25T22:41:54.310Z,11.35
2022-08-25T22:44:23.326Z,11.40
2022-08-25T22:46:50.165Z,10.13
2022-08-25T22:49:18.503Z,11.70
2022-08-25T22:51:46.950Z,12.63
2022-08-25T22:54:15.167Z,12.13
2022-08-25T22:56:42.387Z,12.85
2022-08-25T22:59:12.610Z,10.30
2022-08-25T23:01:39.828Z,14.37
2022-08-25T23:04:08.002Z,13.40
2022-08-25T23:06:35.265Z,12.77
2022-08-25T23:09:03.521Z,11.25
2022-08-25T23:11:30.408Z,12.38
2022-08-25T23:14:05.586Z,11.50
2022-08-25T23:16:33.059Z,10.40
2022-08-25T23:19:00.325Z,14.45
2022-08-25T23:21:45.395Z,9.40
2022-08-25T23:24:13.996Z,10.85
2022-08-25T23:26:54.098Z,11.40
2022-08-25T23:29:21.088Z,11.25
2022-08-25T23:31:48.178Z,13.38
2022-08-25T23:34:16.496Z,13.90
2022-08-25T23:36:43.916Z,13.15
2022-08-25T23:39:11.436Z,8.95
2022-08-25T23:41:38.453Z,13.65
2022-08-25T23:44:11.450Z,11.25
2022-08-25T23:46:39.416Z,10.05
2022-08-25T23:49:09.366Z,17.33
2022-08-25T23:51:40.990Z,10.15
2022-08-25T23:54:10.876Z,8.82
2022-08-25T23:56:44.842Z,12.32
2022-08-25T23:59:19.965Z,10.93
